Time;durP1;ratioP1;P1;durP2;ratioP2;P2;SDS_P1;SDS_P2;PMS_P1;PMS_P2;Temp;Humidity;BMP_temperature;BMP_pressure;BME280_temperature;BME280_humidity;BME280_pressure;Samples;Min_cycle;Max_cycle;Signal;HPM_P1;HPM_P2
2022/08/31 00:04:29;;;;;;;2.92;2.63;;;;;;;15.28;76.36;101653.63;7398682;19;20466;-67
2022/08/31 00:07:00;;;;;;;3.72;2.47;;;;;;;15.25;76.56;101654.56;7400592;19;20038;-67
2022/08/31 00:09:29;;;;;;;4.40;2.67;;;;;;;15.27;76.48;101665.09;7400287;19;20098;-66
2022/08/31 00:11:58;;;;;;;3.90;2.30;;;;;;;15.25;76.34;101654.56;7400037;19;20018;-67
2022/08/31 00:14:27;;;;;;;3.83;2.25;;;;;;;15.24;76.25;101655.47;7396881;19;20023;-67
2022/08/31 00:16:56;;;;;;;3.20;2.50;;;;;;;15.23;76.17;101656.38;7399917;19;20015;-67
2022/08/31 00:19:24;;;;;;;4.78;2.50;;;;;;;15.21;76.26;101655.53;7399318;19;20031;-67
2022/08/31 00:21:53;;;;;;;4.10;2.28;;;;;;;15.18;76.08;101653.00;7399645;19;20035;-67
2022/08/31 00:24:24;;;;;;;2.88;1.77;;;;;;;15.14;76.02;101654.84;7397996;19;20039;-67
2022/08/31 00:26:52;;;;;;;2.97;2.17;;;;;;;15.11;76.04;101654.94;7399688;19;20018;-67
2022/08/31 00:29:21;;;;;;;3.65;2.10;;;;;;;15.09;76.32;101650.56;7398876;19;20031;-67
2022/08/31 00:31:50;;;;;;;3.78;1.98;;;;;;;15.07;76.32;101655.06;7398986;19;20039;-67
2022/08/31 00:34:18;;;;;;;3.88;2.25;;;;;;;15.07;75.96;101660.34;7396703;19;20022;-67
2022/08/31 00:36:47;;;;;;;6.00;2.65;;;;;;;15.07;76.36;101660.34;7400697;19;20047;-67
2022/08/31 00:39:16;;;;;;;2.97;2.20;;;;;;;15.06;75.99;101662.09;7399104;19;20018;-67
2022/08/31 00:41:47;;;;;;;3.00;2.13;;;;;;;15.05;76.16;101663.03;7398973;19;20081;-67
2022/08/31 00:44:15;;;;;;;3.10;2.10;;;;;;;15.03;75.95;101659.53;7396199;19;20006;-67
2022/08/31 00:46:44;;;;;;;3.42;2.13;;;;;;;15.03;76.04;101664.81;7398413;19;20558;-67
2022/08/31 00:49:19;;;;;;;3.35;2.40;;;;;;;15.05;75.96;101662.13;7398276;19;20060;-67
2022/08/31 00:51:51;;;;;;;2.47;2.10;;;;;;;15.04;75.94;101669.22;7398346;19;20018;-67
2022/08/31 00:54:24;;;;;;;2.85;1.92;;;;;;;15.04;75.71;101666.56;7396301;19;20502;-67
2022/08/31 00:56:56;;;;;;;2.83;2.05;;;;;;;15.01;75.79;101663.13;7399018;19;20031;-67
2022/08/31 00:59:25;;;;;;;3.60;2.10;;;;;;;14.98;76.09;101667.56;7398021;19;20443;-67
2022/08/31 01:01:53;;;;;;;3.08;1.60;;;;;;;14.96;75.90;101669.41;7397966;19;20014;-67
2022/08/31 01:04:22;;;;;;;3.38;1.83;;;;;;;14.92;75.97;101669.50;7396942;19;20019;-67
2022/08/31 01:06:51;;;;;;;3.17;1.90;;;;;;;14.90;76.07;101668.69;7398191;19;20035;-67
2022/08/31 01:09:23;;;;;;;3.47;1.50;;;;;;;14.85;76.19;101670.56;7398147;19;20082;-67
2022/08/31 01:11:52;;;;;;;2.72;1.90;;;;;;;14.78;76.22;101664.56;7398408;19;20018;-67
2022/08/31 01:14:23;;;;;;;3.25;1.77;;;;;;;14.75;76.23;101670.81;7397026;19;20018;-67
2022/08/31 01:16:55;;;;;;;3.00;1.77;;;;;;;14.72;76.19;101670.00;7397467;19;20028;-67
2022/08/31 01:19:31;;;;;;;1.85;1.60;;;;;;;14.70;76.46;101662.13;7398264;19;20032;-67
2022/08/31 01:22:09;;;;;;;5.05;1.67;;;;;;;14.67;76.49;101662.19;7398090;19;20431;-67
2022/08/31 01:24:43;;;;;;;2.88;1.50;;;;;;;14.65;76.64;101661.38;7395681;19;20035;-67
2022/08/31 01:27:14;;;;;;;2.40;1.80;;;;;;;14.61;76.53;101671.09;7397129;19;20015;-67
2022/08/31 01:29:42;;;;;;;3.20;2.30;;;;;;;14.59;76.67;101672.03;7395235;19;20031;-67
2022/08/31 01:32:33;;;;;;;2.50;1.90;;;;;;;14.53;76.74;101669.53;7397174;19;20048;-67
2022/08/31 01:35:08;;;;;;;4.32;2.30;;;;;;;14.49;76.92;101668.75;7395339;19;20022;-67
2022/08/31 01:37:43;;;;;;;2.15;1.50;;;;;;;14.44;77.27;101665.34;7396833;19;20493;-67
2022/08/31 01:40:15;;;;;;;3.65;2.08;;;;;;;14.40;77.15;101674.25;7396639;19;20022;-67
2022/08/31 01:42:43;;;;;;;3.35;1.90;;;;;;;14.34;77.48;101664.69;7397041;19;20035;-67
2022/08/31 01:45:14;;;;;;;4.65;2.30;;;;;;;14.28;77.39;101667.47;7394548;19;20007;-67
2022/08/31 01:47:42;;;;;;;2.63;1.90;;;;;;;14.24;77.76;101668.44;7395353;19;20061;-67
2022/08/31 01:50:11;;;;;;;2.83;2.20;;;;;;;14.19;77.76;101660.63;7396722;19;20074;-66
2022/08/31 01:52:40;;;;;;;3.90;2.33;;;;;;;14.16;77.88;101661.56;7396360;19;20419;-66
2022/08/31 01:55:10;;;;;;;2.08;1.88;;;;;;;14.14;78.21;101659.84;7394323;19;20477;-66
2022/08/31 01:57:41;;;;;;;3.08;2.20;;;;;;;14.11;78.21;101662.56;7396470;19;20074;-67
2022/08/31 02:00:12;;;;;;;2.53;2.03;;;;;;;14.07;78.33;101659.13;7396145;19;20036;-67
2022/08/31 02:02:40;;;;;;;2.15;1.95;;;;;;;14.05;78.43;101658.28;7394417;19;20019;-67
2022/08/31 02:05:09;;;;;;;3.17;1.85;;;;;;;14.01;78.48;101648.69;7394157;19;20031;-67
2022/08/31 02:07:38;;;;;;;3.75;2.22;;;;;;;13.97;78.36;101661.09;7394546;19;20018;-67
2022/08/31 02:10:07;;;;;;;2.97;1.90;;;;;;;13.94;78.74;101661.16;7396168;19;20039;-67
2022/08/31 02:12:36;;;;;;;4.88;2.08;;;;;;;13.88;78.82;101661.28;7394287;19;20022;-67
2022/08/31 02:15:08;;;;;;;4.25;1.90;;;;;;;13.83;79.19;101664.00;7393917;19;20028;-67
2022/08/31 02:17:37;;;;;;;2.80;1.63;;;;;;;13.79;79.01;101650.94;7394228;19;20018;-67
2022/08/31 02:20:07;;;;;;;5.10;2.15;;;;;;;13.78;79.22;101665.03;7396022;19;20388;-68
2022/08/31 02:22:35;;;;;;;3.13;2.15;;;;;;;13.73;79.39;101665.09;7397200;19;20090;-68
2022/08/31 02:25:04;;;;;;;3.28;1.92;;;;;;;13.73;79.45;101661.63;7395253;19;20022;-67
2022/08/31 02:27:33;;;;;;;3.47;2.08;;;;;;;13.69;79.32;101661.66;7394029;19;20028;-66
2022/08/31 02:30:01;;;;;;;3.60;2.13;;;;;;;13.67;79.62;101667.88;7395366;19;20022;-67
2022/08/31 02:32:33;;;;;;;3.40;1.67;;;;;;;13.63;79.87;101667.06;7393470;19;20010;-67
2022/08/31 02:35:01;;;;;;;3.15;1.98;;;;;;;13.59;79.93;101664.53;7393140;19;20031;-67
2022/08/31 02:37:30;;;;;;;2.47;1.95;;;;;;;13.55;80.10;101666.34;7394581;19;20478;-67
2022/08/31 02:39:58;;;;;;;3.80;1.90;;;;;;;13.50;80.22;101666.44;7393387;19;20018;-67
2022/08/31 02:42:28;;;;;;;4.18;1.92;;;;;;;13.44;80.37;101656.00;7394663;19;20018;-66
2022/08/31 02:44:57;;;;;;;3.50;1.98;;;;;;;13.40;80.47;101659.59;7392859;19;20021;-66
2022/08/31 02:47:26;;;;;;;4.40;1.90;;;;;;;13.35;80.82;101656.16;7394924;19;20022;-66
2022/08/31 02:49:57;;;;;;;4.00;1.92;;;;;;;13.31;80.58;101657.13;7394872;19;20366;-66
2022/08/31 02:52:26;;;;;;;3.50;2.03;;;;;;;13.27;81.00;101652.78;7395175;19;20022;-67
2022/08/31 02:54:54;;;;;;;3.63;1.90;;;;;;;13.24;80.83;101658.97;7393182;19;20035;-66
2022/08/31 02:57:23;;;;;;;2.38;2.03;;;;;;;13.22;81.19;101658.16;7392884;19;20023;-67
2022/08/31 02:59:51;;;;;;;3.17;1.90;;;;;;;13.19;81.29;101664.34;7392961;19;20026;-66
2022/08/31 03:02:20;;;;;;;3.70;1.88;;;;;;;13.16;81.53;101656.47;7394634;19;20035;-66
2022/08/31 03:04:48;;;;;;;2.20;1.70;;;;;;;13.13;81.61;101656.53;7392631;19;20022;-67
2022/08/31 03:07:20;;;;;;;4.80;1.85;;;;;;;13.11;81.55;101654.84;7392646;19;20385;-67
2022/08/31 03:09:48;;;;;;;3.63;2.20;;;;;;;13.10;81.83;101650.47;7394061;19;20537;-67
2022/08/31 03:12:17;;;;;;;2.38;1.77;;;;;;;13.10;81.82;101661.00;7393923;19;20032;-66
2022/08/31 03:14:45;;;;;;;3.38;2.10;;;;;;;13.10;81.92;101653.94;7399520;19;20078;-67
2022/08/31 03:17:14;;;;;;;4.95;1.80;;;;;;;13.10;82.03;101650.47;7401261;19;20031;-67
2022/08/31 03:19:42;;;;;;;6.10;2.10;;;;;;;13.11;81.87;101654.84;7398387;19;20515;-67
2022/08/31 03:22:12;;;;;;;5.43;2.28;;;;;;;13.12;81.98;101651.31;7401591;19;20022;-66
2022/08/31 03:24:43;;;;;;;2.65;1.70;;;;;;;13.11;82.07;101653.06;7398135;19;20014;-66
2022/08/31 03:27:11;;;;;;;2.47;1.80;;;;;;;13.13;82.13;101651.28;7400881;19;20027;-66
2022/08/31 03:29:41;;;;;;;4.03;1.75;;;;;;;13.16;82.05;101655.63;7400950;19;20018;-68
2022/08/31 03:32:09;;;;;;;2.45;1.80;;;;;;;13.17;82.21;101654.72;7401137;19;20022;-67
2022/08/31 03:34:38;;;;;;;2.53;1.80;;;;;;;13.18;82.13;101654.69;7398215;19;20031;-67
2022/08/31 03:37:07;;;;;;;5.75;2.03;;;;;;;13.20;82.06;101657.28;7400675;19;20010;-67
2022/08/31 03:39:35;;;;;;;3.28;1.65;;;;;;;13.22;82.27;101657.25;7400767;19;20023;-67
2022/08/31 03:42:07;;;;;;;2.78;1.70;;;;;;;13.25;82.16;101659.84;7400247;19;20024;-67
2022/08/31 03:44:41;;;;;;;3.55;1.75;;;;;;;13.26;82.11;101662.47;7397015;19;20010;-67
2022/08/31 03:47:16;;;;;;;3.95;2.00;;;;;;;13.30;82.25;101665.91;7401231;19;20023;-67
2022/08/31 03:49:45;;;;;;;5.43;2.38;;;;;;;13.32;82.24;101667.63;7400600;19;20018;-67
2022/08/31 03:52:13;;;;;;;3.05;1.63;;;;;;;13.35;82.17;101666.69;7400030;19;20074;-67
2022/08/31 03:54:42;;;;;;;4.05;1.80;;;;;;;13.37;82.08;101670.22;7398184;19;20074;-67
2022/08/31 03:57:13;;;;;;;3.50;1.80;;;;;;;13.41;82.23;101665.72;7400397;19;20352;-67
2022/08/31 03:59:42;;;;;;;6.53;2.00;;;;;;;13.41;82.31;101673.63;7400456;19;20090;-66
2022/08/31 04:02:10;;;;;;;2.38;1.40;;;;;;;13.44;82.04;101679.72;7399919;19;20026;-66
2022/08/31 04:04:39;;;;;;;4.28;1.83;;;;;;;13.46;82.20;101672.66;7397607;19;20372;-66
2022/08/31 04:07:07;;;;;;;4.78;1.98;;;;;;;13.48;82.13;101672.63;7400697;19;20047;-67
2022/08/31 04:09:36;;;;;;;4.43;2.22;;;;;;;13.51;82.26;101673.44;7399456;19;20094;-67
2022/08/31 04:12:05;;;;;;;2.58;1.80;;;;;;;13.52;82.19;101676.94;7397367;19;20036;-66
2022/08/31 04:14:36;;;;;;;3.55;1.85;;;;;;;13.52;82.02;101675.19;7397558;19;20074;-66
2022/08/31 04:17:04;;;;;;;2.88;1.67;;;;;;;13.54;82.22;101675.16;7397662;19;20018;-66
2022/08/31 04:19:33;;;;;;;4.53;1.92;;;;;;;13.55;82.06;101681.28;7399008;19;20023;-66
2022/08/31 04:22:01;;;;;;;4.95;1.98;;;;;;;13.56;82.05;101685.66;7399415;19;20015;-66
2022/08/31 04:24:31;;;;;;;3.35;1.60;;;;;;;13.56;82.13;101683.91;7396283;19;20506;-66
2022/08/31 04:26:59;;;;;;;7.85;2.78;;;;;;;13.56;82.30;101680.38;7398954;19;20021;-66
2022/08/31 04:29:28;;;;;;;4.80;1.98;;;;;;;13.57;82.18;101687.41;7398396;19;20506;-67
2022/08/31 04:31:59;;;;;;;3.80;1.70;;;;;;;13.57;82.26;101693.53;7396361;19;20015;-66
2022/08/31 04:34:27;;;;;;;4.40;1.92;;;;;;;13.56;82.36;101691.81;7396141;19;20022;-66
2022/08/31 04:36:56;;;;;;;3.20;1.50;;;;;;;13.57;82.38;101695.31;7398202;19;20035;-66
2022/08/31 04:39:24;;;;;;;4.93;1.92;;;;;;;13.57;82.64;101700.59;7397651;19;20018;-66
2022/08/31 04:41:53;;;;;;;2.25;1.50;;;;;;;13.55;82.60;101695.34;7398151;19;20018;-66
2022/08/31 04:44:21;;;;;;;4.30;1.70;;;;;;;13.54;82.54;101690.97;7396456;19;20437;-66
2022/08/31 04:46:50;;;;;;;3.25;1.85;;;;;;;13.54;82.80;101690.13;7398487;19;20022;-66
2022/08/31 04:49:21;;;;;;;3.63;2.03;;;;;;;13.55;82.96;101686.56;7398094;19;20018;-66
2022/08/31 04:51:49;;;;;;;4.78;1.92;;;;;;;13.56;82.75;101696.22;7398024;19;20050;-67
2022/08/31 04:54:18;;;;;;;5.82;2.15;;;;;;;13.57;82.97;101695.31;7396933;19;20026;-66
2022/08/31 04:56:47;;;;;;;2.90;1.75;;;;;;;13.58;82.85;101691.78;7397877;19;20031;-66
2022/08/31 04:59:24;;;;;;;5.03;1.85;;;;;;;13.60;82.89;101695.28;7395406;19;20030;-66
2022/08/31 05:01:52;;;;;;;4.03;1.85;;;;;;;13.61;83.06;101689.97;7397539;19;20015;-66
2022/08/31 05:04:27;;;;;;;4.43;1.92;;;;;;;13.61;83.13;101689.97;7394470;19;20458;-67
2022/08/31 05:06:56;;;;;;;4.22;1.85;;;;;;;13.63;83.08;101692.56;7392696;19;20086;-66
2022/08/31 05:09:25;;;;;;;4.43;2.17;;;;;;;13.63;82.93;101688.16;7395501;19;20032;-66
2022/08/31 05:11:56;;;;;;;3.65;1.50;;;;;;;13.64;82.96;101689.88;7395499;19;20038;-67
2022/08/31 05:14:26;;;;;;;2.85;1.67;;;;;;;13.66;82.93;101692.50;7395016;19;20015;-67
2022/08/31 05:16:54;;;;;;;3.67;1.77;;;;;;;13.66;83.07;101689.84;7394329;19;20018;-67
2022/08/31 05:19:25;;;;;;;4.70;2.10;;;;;;;13.67;83.13;101688.97;7395465;19;20018;-66
2022/08/31 05:21:54;;;;;;;5.38;2.25;;;;;;;13.67;83.18;101695.13;7392383;19;20019;-66
2022/08/31 05:24:24;;;;;;;5.20;2.30;;;;;;;13.67;83.14;101700.41;7393379;19;20037;-67
2022/08/31 05:26:54;;;;;;;4.65;1.65;;;;;;;13.68;83.20;101701.25;7396957;19;20481;-68
2022/08/31 05:29:25;;;;;;;3.45;2.05;;;;;;;13.68;83.27;101701.25;7397618;19;20018;-68
2022/08/31 05:31:55;;;;;;;5.53;1.95;;;;;;;13.66;83.37;101698.66;7396971;19;20022;-66
2022/08/31 05:34:26;;;;;;;5.03;2.72;;;;;;;13.65;83.32;101698.69;7394197;19;20366;-67
2022/08/31 05:36:57;;;;;;;3.10;2.13;;;;;;;13.64;83.40;101696.94;7394473;19;20077;-67
2022/08/31 05:39:26;;;;;;;4.22;1.73;;;;;;;13.63;83.71;101697.84;7396231;19;20014;-66
2022/08/31 05:41:55;;;;;;;6.50;2.20;;;;;;;13.63;83.60;101693.41;7395888;19;20015;-66
2022/08/31 05:44:24;;;;;;;3.78;2.00;;;;;;;13.65;83.83;101696.06;7394464;19;20029;-71
2022/08/31 05:46:52;;;;;;;5.43;2.05;;;;;;;13.67;83.92;101699.50;7394684;19;20028;-67
2022/08/31 05:49:21;;;;;;;4.38;1.80;;;;;;;13.67;83.77;101705.66;7394655;19;20105;-67
2022/08/31 05:51:52;;;;;;;3.90;2.22;;;;;;;13.69;83.84;101710.91;7395888;19;20031;-67
2022/08/31 05:54:21;;;;;;;3.70;2.72;;;;;;;13.72;83.87;101713.47;7395418;19;20022;-67
2022/08/31 05:56:49;;;;;;;4.35;2.00;;;;;;;13.76;84.08;101709.00;7395937;19;20031;-67
2022/08/31 05:59:17;;;;;;;4.30;2.10;;;;;;;13.78;84.01;101708.06;7395569;19;20385;-66
2022/08/31 06:01:46;;;;;;;2.63;1.80;;;;;;;13.81;83.98;101710.66;7393551;19;20092;-66
2022/08/31 06:04:15;;;;;;;2.13;1.80;;;;;;;13.85;84.26;101704.44;7393969;19;20022;-66
2022/08/31 06:06:43;;;;;;;5.35;2.05;;;;;;;13.88;84.11;101713.19;7395414;19;20082;-66
2022/08/31 06:09:14;;;;;;;3.53;2.17;;;;;;;13.91;84.08;101713.13;7395187;19;20035;-67
2022/08/31 06:11:43;;;;;;;1.90;1.67;;;;;;;13.94;84.10;101707.75;7394313;19;20110;-66
2022/08/31 06:14:12;;;;;;;4.95;2.13;;;;;;;13.95;83.97;101710.41;7392884;19;20018;-67
2022/08/31 06:16:44;;;;;;;4.95;2.25;;;;;;;13.99;83.96;101711.19;7394769;19;20478;-67
2022/08/31 06:19:13;;;;;;;5.70;1.90;;;;;;;14.02;83.82;101711.13;7395085;19;20077;-67
2022/08/31 06:21:47;;;;;;;6.40;1.70;;;;;;;14.06;83.57;101717.22;7395144;19;20411;-66
2022/08/31 06:24:20;;;;;;;7.50;2.70;;;;;;;14.10;83.92;101718.88;7392862;19;20081;-66
2022/08/31 06:26:54;;;;;;;3.95;1.90;;;;;;;14.14;83.87;101718.78;7395239;19;20021;-67
2022/08/31 06:29:23;;;;;;;3.03;2.20;;;;;;;14.20;83.72;101719.56;7395554;19;20018;-67
2022/08/31 06:31:52;;;;;;;3.58;1.92;;;;;;;14.25;83.80;101726.47;7394605;19;20032;-66
2022/08/31 06:34:22;;;;;;;6.80;2.88;;;;;;;14.32;83.74;101729.88;7393092;19;20039;-67
2022/08/31 06:36:51;;;;;;;5.35;1.90;;;;;;;14.39;83.60;101741.16;7394256;19;20081;-67
2022/08/31 06:39:22;;;;;;;3.33;1.73;;;;;;;14.45;83.50;101739.22;7393967;19;20028;-67
2022/08/31 06:41:52;;;;;;;4.97;2.72;;;;;;;14.53;83.15;101739.06;7392103;19;20027;-67
2022/08/31 06:44:22;;;;;;;4.70;1.70;;;;;;;14.60;82.94;101745.94;7392858;19;20501;-67
2022/08/31 06:46:52;;;;;;;4.82;1.70;;;;;;;14.68;82.51;101758.16;7392277;19;20017;-67
2022/08/31 06:49:21;;;;;;;2.92;1.65;;;;;;;14.73;82.39;101749.22;7392991;19;20035;-67
2022/08/31 06:51:50;;;;;;;5.18;1.67;;;;;;;14.82;82.14;101750.75;7394022;19;20011;-68
2022/08/31 06:54:22;;;;;;;2.35;1.30;;;;;;;14.88;81.65;101755.06;7392385;19;20027;-71
2022/08/31 06:56:51;;;;;;;4.90;1.00;;;;;;;14.93;81.31;101753.16;7392059;19;20510;-66
2022/08/31 06:59:19;;;;;;;4.18;1.33;;;;;;;14.99;81.15;101761.81;7394478;19;20023;-65
2022/08/31 07:01:48;;;;;;;5.68;1.50;;;;;;;15.06;80.95;101757.22;7391650;19;20015;-66
2022/08/31 07:04:16;;;;;;;4.43;1.85;;;;;;;15.13;80.55;101758.81;7391893;19;20022;-66
2022/08/31 07:06:46;;;;;;;3.13;1.55;;;;;;;15.19;79.93;101756.94;7391855;19;20011;-66
2022/08/31 07:09:17;;;;;;;3.45;1.02;;;;;;;15.27;79.88;101763.78;7393879;19;20015;-66
2022/08/31 07:11:50;;;;;;;4.50;1.50;;;;;;;15.35;79.39;101763.56;7393354;19;20078;-66
2022/08/31 07:14:22;;;;;;;3.55;1.35;;;;;;;15.41;79.19;101760.78;7390474;19;20015;-66
2022/08/31 07:16:53;;;;;;;4.40;1.23;;;;;;;15.52;79.28;101772.84;7393094;19;20015;-66
2022/08/31 07:19:23;;;;;;;2.17;1.00;;;;;;;15.58;78.95;101767.41;7393971;19;20028;-66
2022/08/31 07:21:54;;;;;;;3.20;1.40;;;;;;;15.66;78.59;101767.19;7393583;19;20022;-67
2022/08/31 07:24:26;;;;;;;2.85;1.15;;;;;;;15.71;78.56;101767.94;7392642;19;20037;-66
2022/08/31 07:26:59;;;;;;;2.08;1.02;;;;;;;15.77;78.43;101757.19;7394152;19;20097;-66
2022/08/31 07:29:30;;;;;;;2.43;1.27;;;;;;;15.83;78.36;101759.69;7393644;19;20011;-67
2022/08/31 07:32:00;;;;;;;5.90;2.03;;;;;;;15.90;77.82;101755.97;7393794;19;20093;-66
2022/08/31 07:34:30;;;;;;;3.10;1.52;;;;;;;15.96;78.02;101768.16;7390585;19;20031;-67
2022/08/31 07:42:38;;;;;;;3.63;1.20;;;;;;;16.21;76.74;101773.63;7387685;19;20010;-67
2022/08/31 07:45:10;;;;;;;2.65;0.93;;;;;;;16.27;76.52;101778.75;7390068;19;20485;-66
2022/08/31 07:47:44;;;;;;;3.67;1.45;;;;;;;16.32;76.29;101775.97;7393243;19;20074;-67
2022/08/31 07:50:13;;;;;;;;;;;;;;;16.41;75.21;101775.69;7393122;19;20035;-66
2022/08/31 07:52:47;;;;;;;3.75;1.42;;;;;;;16.50;75.91;101779.00;7392774;19;19994;-66
2022/08/31 07:55:16;;;;;;;;;;;;;;;16.56;74.63;101779.66;7393707;19;20098;-66
2022/08/31 07:57:49;;;;;;;2.65;1.23;;;;;;;16.65;75.35;101780.31;7390404;19;19927;-67
2022/08/31 08:00:20;;;;;;;3.13;1.50;;;;;;;16.72;74.57;101772.13;7398691;19;20010;-67
2022/08/31 08:02:50;;;;;;;2.08;0.90;;;;;;;16.83;74.58;101770.91;7399658;19;20010;-67
2022/08/31 08:05:22;;;;;;;2.28;0.68;;;;;;;16.91;73.80;101774.22;7399656;19;20481;-66
2022/08/31 08:07:55;;;;;;;2.30;1.08;;;;;;;16.99;73.51;101772.19;7400191;19;20022;-66
2022/08/31 08:10:25;;;;;;;2.38;1.40;;;;;;;17.06;72.88;101770.19;7396802;19;20019;-66
2022/08/31 08:12:59;;;;;;;3.35;0.80;;;;;;;17.15;72.58;101767.25;7399302;19;20018;-67
2022/08/31 08:15:28;;;;;;;2.35;1.00;;;;;;;17.23;72.45;101769.66;7398685;19;20018;-67
2022/08/31 08:17:57;;;;;;;2.70;1.20;;;;;;;17.32;71.58;101774.63;7398985;19;20037;-66
2022/08/31 08:20:25;;;;;;;2.13;0.93;;;;;;;17.37;71.00;101763.88;7398699;19;20074;-66
2022/08/31 08:22:54;;;;;;;2.35;0.70;;;;;;;17.48;70.93;101776.75;7398550;19;20023;-66
2022/08/31 08:25:22;;;;;;;3.65;1.10;;;;;;;17.54;70.01;101768.59;7398461;19;20481;-67
2022/08/31 08:27:56;;;;;;;4.60;1.58;;;;;;;17.59;69.51;101778.16;7397148;19;20029;-66
2022/08/31 08:30:25;;;;;;;3.58;1.30;;;;;;;17.66;69.78;101768.16;7395747;19;20027;-66
2022/08/31 08:32:53;;;;;;;3.22;0.90;;;;;;;17.74;69.20;101773.19;7397656;19;20511;-66
2022/08/31 08:35:22;;;;;;;2.70;1.30;;;;;;;17.81;69.20;101764.09;7397791;19;20043;-66
2022/08/31 08:37:51;;;;;;;1.58;0.80;;;;;;;17.87;68.23;101763.03;7398394;19;20031;-66
2022/08/31 08:40:31;;;;;;;2.13;1.05;;;;;;;17.95;67.54;101766.28;7398370;19;20015;-67
2022/08/31 08:43:04;;;;;;;1.83;0.90;;;;;;;18.01;67.39;101763.41;7397565;19;20040;-67
2022/08/31 08:45:34;;;;;;;2.22;0.82;;;;;;;18.08;67.24;101764.06;7397824;19;20011;-67
2022/08/31 08:48:05;;;;;;;3.33;0.70;;;;;;;18.13;66.51;101769.19;7396427;19;20089;-67
2022/08/31 08:50:35;;;;;;;3.17;0.95;;;;;;;18.19;66.20;101769.81;7398345;19;20070;-67
2022/08/31 08:53:04;;;;;;;5.30;0.80;;;;;;;18.26;65.17;101766.94;7397921;19;20078;-67
2022/08/31 08:55:43;;;;;;;2.08;0.82;;;;;;;18.32;64.66;101772.03;7397560;19;20015;-67
2022/08/31 08:58:21;;;;;;;3.88;0.98;;;;;;;18.39;62.56;101773.53;7396206;19;20018;-67
2022/08/31 09:00:52;;;;;;;2.92;0.60;;;;;;;18.47;63.63;101776.75;7398418;19;20082;-66
2022/08/31 09:03:32;;;;;;;3.08;0.80;;;;;;;18.54;63.49;101778.25;7397015;19;20471;-67
2022/08/31 09:06:08;;;;;;;2.25;1.00;;;;;;;18.64;62.75;101775.22;7397488;19;20014;-67
2022/08/31 09:08:58;;;;;;;2.03;1.02;;;;;;;18.72;61.72;101781.97;7396817;19;20015;-65
2022/08/31 09:11:37;;;;;;;1.85;0.90;;;;;;;18.80;60.56;101783.47;7391885;19;20061;-67
2022/08/31 09:14:24;;;;;;;1.17;0.60;;;;;;;18.86;57.09;101778.75;7395045;19;20078;-67
2022/08/31 09:16:58;;;;;;;1.38;0.60;;;;;;;18.94;58.57;101780.28;7396145;19;20025;-67
2022/08/31 09:19:27;;;;;;;2.08;0.68;;;;;;;19.04;58.78;101768.34;7397299;19;20018;-66
2022/08/31 09:22:00;;;;;;;1.35;0.57;;;;;;;19.16;58.41;101770.50;7396578;19;20023;-66
2022/08/31 09:24:31;;;;;;;1.35;0.47;;;;;;;19.28;57.53;101773.56;7395702;19;20023;-66
2022/08/31 09:27:16;;;;;;;3.47;0.90;;;;;;;19.39;57.17;101776.66;7394428;19;20031;-67
2022/08/31 09:29:54;;;;;;;1.42;0.60;;;;;;;19.50;55.99;101765.56;7396701;19;20083;-67
2022/08/31 09:32:25;;;;;;;1.52;0.55;;;;;;;19.61;56.57;101765.06;7394162;19;20078;-67
2022/08/31 09:34:59;;;;;;;2.95;0.82;;;;;;;19.69;56.37;101771.78;7393936;19;20031;-66
2022/08/31 09:37:32;;;;;;;;;;;;;;;19.79;54.45;101764.28;7395789;19;20029;-67
2022/08/31 09:40:15;;;;;;;1.65;0.98;;;;;;;19.87;54.03;101761.28;7395957;19;19919;-67
2022/08/31 09:42:48;;;;;;;1.85;0.80;;;;;;;19.95;54.82;101759.13;7395468;19;20011;-67
2022/08/31 09:45:28;;;;;;;1.55;0.70;;;;;;;20.01;53.36;101755.34;7393930;19;20014;-67
2022/08/31 09:48:00;;;;;;;2.45;1.10;;;;;;;20.07;54.00;101764.84;7395592;19;20489;-67
2022/08/31 09:50:34;;;;;;;1.98;0.75;;;;;;;20.11;52.80;101763.78;7396988;19;20360;-67
2022/08/31 09:56:12;;;;;;;1.73;0.60;;;;;;;20.21;51.44;101758.88;7395354;19;20002;-67
2022/08/31 09:58:43;;;;;;;1.65;0.70;;;;;;;20.24;50.83;101762.28;7396399;19;20085;-68
2022/08/31 10:01:19;;;;;;;1.55;0.73;;;;;;;20.27;50.44;101762.16;7396400;19;20075;-67
2022/08/31 10:03:49;;;;;;;2.75;0.65;;;;;;;20.28;51.59;101765.66;7395145;19;20074;-67
2022/08/31 10:06:36;;;;;;;2.97;0.95;;;;;;;20.29;49.48;101765.59;7395822;19;20086;-66
2022/08/31 10:09:13;;;;;;;2.70;1.20;;;;;;;20.25;50.53;101761.34;7395984;19;20014;-67
2022/08/31 10:11:46;;;;;;;1.13;0.50;;;;;;;20.23;50.64;101757.03;7395008;19;20143;-67
2022/08/31 10:14:25;;;;;;;1.63;0.70;;;;;;;20.23;50.63;101755.22;7394519;19;20022;-66
2022/08/31 10:17:02;;;;;;;2.58;0.88;;;;;;;20.25;50.62;101750.69;7393892;19;20437;-67
2022/08/31 10:19:49;;;;;;;4.13;0.70;;;;;;;20.23;49.31;101752.53;7394834;19;20469;-67
2022/08/31 10:22:27;;;;;;;1.98;0.68;;;;;;;20.19;48.85;101758.97;7393672;19;20488;-67
2022/08/31 10:25:16;;;;;;;2.38;0.95;;;;;;;20.17;49.33;101758.19;7393481;19;20027;-67
2022/08/31 10:27:48;;;;;;;1.15;0.50;;;;;;;20.17;49.50;101752.84;7395892;19;20010;-67
2022/08/31 10:30:30;;;;;;;1.23;0.50;;;;;;;20.17;47.83;101745.72;7392740;19;20014;-66
2022/08/31 10:33:11;;;;;;;1.77;0.60;;;;;;;20.23;48.67;101759.69;7394716;19;20018;-67
2022/08/31 10:35:51;;;;;;;2.05;0.60;;;;;;;20.24;46.55;101756.94;7392094;19;20018;-67
2022/08/31 10:38:28;;;;;;;3.20;0.57;;;;;;;20.26;46.53;101757.75;7392472;19;20021;-67
2022/08/31 10:41:06;;;;;;;1.95;0.30;;;;;;;20.29;46.24;101752.25;7392853;19;20023;-67
2022/08/31 10:43:40;;;;;;;0.70;0.45;;;;;;;20.33;44.51;101745.00;7393654;19;20038;-67
2022/08/31 10:46:09;;;;;;;1.70;0.65;;;;;;;20.39;46.35;101738.53;7393627;19;20014;-67
2022/08/31 10:48:53;;;;;;;1.95;0.63;;;;;;;20.45;45.88;101736.41;7394380;19;20023;-66
2022/08/31 10:51:29;;;;;;;0.95;0.50;;;;;;;20.52;46.63;101742.31;7394133;19;20081;-67
2022/08/31 10:54:23;;;;;;;1.05;0.60;;;;;;;20.61;45.51;101733.91;7393949;19;20154;-66
2022/08/31 10:57:00;;;;;;;1.85;0.55;;;;;;;20.73;45.88;101728.94;7394149;19;20490;-67
2022/08/31 10:59:35;;;;;;;3.55;1.20;;;;;;;20.82;44.82;101733.81;7393577;19;20018;-67
2022/08/31 11:02:27;;;;;;;2.30;0.75;;;;;;;20.88;43.49;101729.97;7393823;19;20015;-67
2022/08/31 11:05:09;;;;;;;1.60;0.43;;;;;;;20.85;42.81;101736.31;7391272;19;20021;-66
2022/08/31 11:07:47;;;;;;;1.27;0.52;;;;;;;20.87;43.83;101736.25;7393558;19;20380;-67
2022/08/31 11:10:24;;;;;;;1.88;0.50;;;;;;;20.92;43.99;101740.41;7394118;19;20018;-67
2022/08/31 11:12:56;;;;;;;1.20;0.70;;;;;;;20.97;43.63;101733.03;7393212;19;20018;-67
2022/08/31 11:15:42;;;;;;;1.30;0.40;;;;;;;20.96;42.46;101731.31;7393222;19;20032;-66
2022/08/31 11:18:55;;;;;;;1.40;0.60;;;;;;;20.94;40.50;101721.66;7391529;19;20014;-66
2022/08/31 11:21:49;;;;;;;1.65;0.90;;;;;;;20.90;42.96;101731.63;7391927;19;20019;-66
2022/08/31 11:24:27;;;;;;;;;;;;;;;20.92;42.13;101726.22;7391099;19;20074;-66
2022/08/31 11:27:10;;;;;;;2.15;0.60;;;;;;;20.98;43.73;101724.09;7389972;19;19984;-67
2022/08/31 11:29:43;;;;;;;1.45;0.60;;;;;;;21.09;43.46;101720.03;7390108;19;20033;-67
2022/08/31 11:32:19;;;;;;;1.10;0.50;;;;;;;21.18;42.55;101724.91;7391775;19;20019;-66
2022/08/31 11:34:52;;;;;;;3.22;0.50;;;;;;;21.28;43.09;101726.16;7393036;19;20486;-66
2022/08/31 11:37:59;;;;;;;2.73;0.50;;;;;;;21.31;42.22;101719.81;7396317;19;20014;-66
2022/08/31 11:41:04;;;;;;;2.42;0.50;;;;;;;21.31;41.72;101715.31;7398686;19;21058;-66
2022/08/31 11:43:52;;;;;;;2.17;0.70;;;;;;;21.29;41.88;101727.00;7398523;19;20031;-66
2022/08/31 11:46:51;;;;;;;1.95;0.90;;;;;;;21.34;42.48;101714.28;7397451;19;20478;-66
2022/08/31 11:49:48;;;;;;;1.88;0.60;;;;;;;21.47;42.10;101714.50;7397430;19;20018;-66
2022/08/31 11:52:41;;;;;;;2.65;0.75;;;;;;;21.60;41.14;101702.28;7400460;19;20029;-67
2022/08/31 11:55:19;;;;;;;3.28;0.55;;;;;;;21.76;41.45;101704.13;7396984;19;20018;-66
2022/08/31 11:58:18;;;;;;;1.65;0.50;;;;;;;21.89;40.85;101699.84;7397833;19;20019;-66
2022/08/31 12:00:51;;;;;;;2.13;0.77;;;;;;;22.06;41.10;101700.75;7399365;19;20018;-67
2022/08/31 12:03:49;;;;;;;0.93;0.60;;;;;;;22.25;39.19;101698.75;7396011;19;20348;-67